sensor_id;sensor_type;location;lat;lon;timestamp;P1;durP1;ratioP1;P2;durP2;ratioP2
12308;SDS011;6217;48.150;17.142;2022-11-24T00:02:27;59.20;;;32.45;;
12308;SDS011;6217;48.150;17.142;2022-11-24T00:06:34;64.07;;;32.30;;
12308;SDS011;6217;48.150;17.142;2022-11-24T00:10:40;60.80;;;33.60;;
12308;SDS011;6217;48.150;17.142;2022-11-24T00:14:46;63.65;;;32.85;;
12308;SDS011;6217;48.150;17.142;2022-11-24T00:18:52;70.35;;;33.20;;
12308;SDS011;6217;48.150;17.142;2022-11-24T00:23:01;66.63;;;33.75;;
12308;SDS011;6217;48.150;17.142;2022-11-24T00:27:07;60.03;;;33.42;;
12308;SDS011;6217;48.150;17.142;2022-11-24T00:31:34;68.28;;;33.88;;
12308;SDS011;6217;48.150;17.142;2022-11-24T00:35:42;69.70;;;37.35;;
12308;SDS011;6217;48.150;17.142;2022-11-24T00:39:48;63.45;;;34.47;;
12308;SDS011;6217;48.150;17.142;2022-11-24T00:43:54;74.50;;;37.95;;
12308;SDS011;6217;48.150;17.142;2022-11-24T00:47:59;72.65;;;38.35;;
12308;SDS011;6217;48.150;17.142;2022-11-24T00:52:05;74.30;;;38.95;;
12308;SDS011;6217;48.150;17.142;2022-11-24T00:56:11;79.30;;;39.90;;
12308;SDS011;6217;48.150;17.142;2022-11-24T01:00:17;73.32;;;38.40;;
12308;SDS011;6217;48.150;17.142;2022-11-24T01:04:23;74.05;;;38.80;;
12308;SDS011;6217;48.150;17.142;2022-11-24T01:08:29;69.55;;;38.55;;
12308;SDS011;6217;48.150;17.142;2022-11-24T01:12:35;74.15;;;39.17;;
12308;SDS011;6217;48.150;17.142;2022-11-24T01:16:40;82.82;;;38.95;;
12308;SDS011;6217;48.150;17.142;2022-11-24T01:20:46;72.20;;;38.35;;
12308;SDS011;6217;48.150;17.142;2022-11-24T01:24:52;79.32;;;39.25;;
12308;SDS011;6217;48.150;17.142;2022-11-24T01:28:57;82.00;;;41.15;;
12308;SDS011;6217;48.150;17.142;2022-11-24T01:33:03;70.65;;;38.75;;
12308;SDS011;6217;48.150;17.142;2022-11-24T01:37:09;69.00;;;38.40;;
12308;SDS011;6217;48.150;17.142;2022-11-24T01:41:17;70.68;;;38.95;;
12308;SDS011;6217;48.150;17.142;2022-11-24T01:45:32;68.43;;;39.22;;
12308;SDS011;6217;48.150;17.142;2022-11-24T01:49:42;84.43;;;40.60;;
12308;SDS011;6217;48.150;17.142;2022-11-24T01:53:53;91.57;;;42.17;;
12308;SDS011;6217;48.150;17.142;2022-11-24T02:02:17;85.28;;;41.85;;
12308;SDS011;6217;48.150;17.142;2022-11-24T02:06:25;79.45;;;40.42;;
12308;SDS011;6217;48.150;17.142;2022-11-24T02:10:33;79.30;;;39.05;;
12308;SDS011;6217;48.150;17.142;2022-11-24T02:14:40;86.22;;;41.85;;
12308;SDS011;6217;48.150;17.142;2022-11-24T02:18:48;81.10;;;40.92;;
12308;SDS011;6217;48.150;17.142;2022-11-24T02:27:09;81.97;;;42.53;;
12308;SDS011;6217;48.150;17.142;2022-11-24T02:31:16;80.63;;;42.88;;
12308;SDS011;6217;48.150;17.142;2022-11-24T02:35:22;84.03;;;44.42;;
12308;SDS011;6217;48.150;17.142;2022-11-24T02:39:27;71.60;;;38.28;;
12308;SDS011;6217;48.150;17.142;2022-11-24T02:43:35;82.82;;;41.55;;
12308;SDS011;6217;48.150;17.142;2022-11-24T02:47:50;84.63;;;41.17;;
12308;SDS011;6217;48.150;17.142;2022-11-24T02:51:55;78.55;;;41.08;;
12308;SDS011;6217;48.150;17.142;2022-11-24T02:56:01;84.80;;;40.78;;
12308;SDS011;6217;48.150;17.142;2022-11-24T03:00:07;81.28;;;40.33;;
12308;SDS011;6217;48.150;17.142;2022-11-24T03:04:13;75.45;;;38.95;;
12308;SDS011;6217;48.150;17.142;2022-11-24T03:08:19;75.28;;;38.33;;
12308;SDS011;6217;48.150;17.142;2022-11-24T03:12:25;73.57;;;37.13;;
12308;SDS011;6217;48.150;17.142;2022-11-24T03:16:30;74.95;;;36.63;;
12308;SDS011;6217;48.150;17.142;2022-11-24T03:20:36;66.15;;;33.67;;
12308;SDS011;6217;48.150;17.142;2022-11-24T03:24:42;68.20;;;37.50;;
12308;SDS011;6217;48.150;17.142;2022-11-24T03:28:48;58.08;;;32.97;;
12308;SDS011;6217;48.150;17.142;2022-11-24T03:32:56;60.72;;;29.95;;
12308;SDS011;6217;48.150;17.142;2022-11-24T03:37:02;58.33;;;32.15;;
12308;SDS011;6217;48.150;17.142;2022-11-24T03:41:08;71.82;;;32.88;;
12308;SDS011;6217;48.150;17.142;2022-11-24T03:45:14;63.30;;;34.45;;
12308;SDS011;6217;48.150;17.142;2022-11-24T03:49:20;66.45;;;34.60;;
12308;SDS011;6217;48.150;17.142;2022-11-24T03:53:26;68.10;;;35.95;;
12308;SDS011;6217;48.150;17.142;2022-11-24T03:57:34;71.95;;;35.92;;
12308;SDS011;6217;48.150;17.142;2022-11-24T04:01:39;66.70;;;35.17;;
12308;SDS011;6217;48.150;17.142;2022-11-24T04:05:45;55.55;;;30.67;;
12308;SDS011;6217;48.150;17.142;2022-11-24T04:09:51;55.28;;;31.77;;
12308;SDS011;6217;48.150;17.142;2022-11-24T04:13:57;55.50;;;28.50;;
12308;SDS011;6217;48.150;17.142;2022-11-24T04:18:03;54.25;;;28.13;;
12308;SDS011;6217;48.150;17.142;2022-11-24T04:22:08;45.58;;;24.23;;
12308;SDS011;6217;48.150;17.142;2022-11-24T04:26:14;50.00;;;23.85;;
12308;SDS011;6217;48.150;17.142;2022-11-24T04:30:20;46.33;;;22.67;;
12308;SDS011;6217;48.150;17.142;2022-11-24T04:34:27;44.08;;;24.35;;
12308;SDS011;6217;48.150;17.142;2022-11-24T04:38:33;42.90;;;22.35;;
12308;SDS011;6217;48.150;17.142;2022-11-24T04:42:39;41.97;;;21.42;;
12308;SDS011;6217;48.150;17.142;2022-11-24T04:46:44;36.22;;;19.92;;
12308;SDS011;6217;48.150;17.142;2022-11-24T04:50:50;33.88;;;17.25;;
12308;SDS011;6217;48.150;17.142;2022-11-24T04:54:56;26.42;;;15.55;;
12308;SDS011;6217;48.150;17.142;2022-11-24T04:59:02;25.08;;;15.25;;
12308;SDS011;6217;48.150;17.142;2022-11-24T05:03:08;24.73;;;16.27;;
12308;SDS011;6217;48.150;17.142;2022-11-24T05:07:14;23.50;;;14.90;;
12308;SDS011;6217;48.150;17.142;2022-11-24T05:11:21;22.23;;;15.88;;
12308;SDS011;6217;48.150;17.142;2022-11-24T05:15:27;27.13;;;16.20;;
12308;SDS011;6217;48.150;17.142;2022-11-24T05:19:33;22.27;;;15.48;;
12308;SDS011;6217;48.150;17.142;2022-11-24T05:23:39;30.08;;;16.77;;
12308;SDS011;6217;48.150;17.142;2022-11-24T05:27:44;23.13;;;16.23;;
12308;SDS011;6217;48.150;17.142;2022-11-24T05:31:50;23.65;;;16.20;;
12308;SDS011;6217;48.150;17.142;2022-11-24T05:35:59;23.80;;;15.05;;
12308;SDS011;6217;48.150;17.142;2022-11-24T05:40:06;25.50;;;15.98;;
12308;SDS011;6217;48.150;17.142;2022-11-24T05:44:12;25.92;;;15.45;;
12308;SDS011;6217;48.150;17.142;2022-11-24T05:48:18;26.73;;;15.20;;
12308;SDS011;6217;48.150;17.142;2022-11-24T05:52:24;27.13;;;15.38;;
12308;SDS011;6217;48.150;17.142;2022-11-24T05:56:29;27.48;;;16.65;;
12308;SDS011;6217;48.150;17.142;2022-11-24T06:00:35;28.15;;;16.25;;
12308;SDS011;6217;48.150;17.142;2022-11-24T06:04:41;23.35;;;15.43;;
12308;SDS011;6217;48.150;17.142;2022-11-24T06:08:47;26.70;;;14.88;;
12308;SDS011;6217;48.150;17.142;2022-11-24T06:12:53;23.63;;;14.30;;
12308;SDS011;6217;48.150;17.142;2022-11-24T06:16:59;23.58;;;14.32;;
12308;SDS011;6217;48.150;17.142;2022-11-24T06:21:05;21.65;;;14.20;;
12308;SDS011;6217;48.150;17.142;2022-11-24T06:25:11;20.33;;;13.13;;
12308;SDS011;6217;48.150;17.142;2022-11-24T06:29:16;26.85;;;13.70;;
12308;SDS011;6217;48.150;17.142;2022-11-24T06:33:22;24.02;;;13.43;;
12308;SDS011;6217;48.150;17.142;2022-11-24T06:37:28;18.63;;;11.25;;
12308;SDS011;6217;48.150;17.142;2022-11-24T06:41:33;15.30;;;11.80;;
12308;SDS011;6217;48.150;17.142;2022-11-24T06:45:39;23.08;;;12.32;;
12308;SDS011;6217;48.150;17.142;2022-11-24T06:49:45;18.75;;;11.05;;
12308;SDS011;6217;48.150;17.142;2022-11-24T06:53:51;18.35;;;11.25;;
12308;SDS011;6217;48.150;17.142;2022-11-24T06:57:56;19.27;;;12.52;;
12308;SDS011;6217;48.150;17.142;2022-11-24T07:02:02;17.42;;;11.10;;
12308;SDS011;6217;48.150;17.142;2022-11-24T07:06:08;18.45;;;10.63;;
12308;SDS011;6217;48.150;17.142;2022-11-24T07:10:14;18.38;;;10.73;;
12308;SDS011;6217;48.150;17.142;2022-11-24T07:14:19;18.95;;;10.73;;
12308;SDS011;6217;48.150;17.142;2022-11-24T07:18:25;15.07;;;10.57;;
12308;SDS011;6217;48.150;17.142;2022-11-24T07:22:31;15.82;;;10.23;;
12308;SDS011;6217;48.150;17.142;2022-11-24T07:26:37;14.43;;;9.90;;
12308;SDS011;6217;48.150;17.142;2022-11-24T07:30:45;13.93;;;8.60;;
12308;SDS011;6217;48.150;17.142;2022-11-24T07:34:51;17.15;;;9.48;;
12308;SDS011;6217;48.150;17.142;2022-11-24T07:38:56;14.65;;;10.23;;
12308;SDS011;6217;48.150;17.142;2022-11-24T07:43:02;15.35;;;10.13;;
12308;SDS011;6217;48.150;17.142;2022-11-24T07:47:09;16.33;;;8.52;;
12308;SDS011;6217;48.150;17.142;2022-11-24T07:51:14;14.02;;;8.07;;
12308;SDS011;6217;48.150;17.142;2022-11-24T07:55:20;9.75;;;7.25;;
12308;SDS011;6217;48.150;17.142;2022-11-24T07:59:26;12.10;;;7.38;;
12308;SDS011;6217;48.150;17.142;2022-11-24T08:03:32;8.40;;;5.47;;
12308;SDS011;6217;48.150;17.142;2022-11-24T08:07:38;9.73;;;6.55;;
12308;SDS011;6217;48.150;17.142;2022-11-24T08:11:43;10.63;;;4.90;;
12308;SDS011;6217;48.150;17.142;2022-11-24T08:15:49;13.02;;;6.03;;
12308;SDS011;6217;48.150;17.142;2022-11-24T08:19:55;10.38;;;4.97;;
12308;SDS011;6217;48.150;17.142;2022-11-24T08:24:01;14.05;;;5.55;;
12308;SDS011;6217;48.150;17.142;2022-11-24T08:28:06;6.35;;;3.92;;
12308;SDS011;6217;48.150;17.142;2022-11-24T08:32:12;8.43;;;5.05;;
12308;SDS011;6217;48.150;17.142;2022-11-24T08:36:19;7.78;;;4.95;;
12308;SDS011;6217;48.150;17.142;2022-11-24T08:40:25;9.23;;;5.28;;
12308;SDS011;6217;48.150;17.142;2022-11-24T08:44:30;7.97;;;5.47;;
12308;SDS011;6217;48.150;17.142;2022-11-24T08:48:36;9.50;;;6.15;;
12308;SDS011;6217;48.150;17.142;2022-11-24T08:52:42;7.95;;;5.70;;
12308;SDS011;6217;48.150;17.142;2022-11-24T08:56:48;9.70;;;7.00;;
12308;SDS011;6217;48.150;17.142;2022-11-24T09:00:53;8.38;;;5.25;;
12308;SDS011;6217;48.150;17.142;2022-11-24T09:05:00;6.47;;;4.22;;
12308;SDS011;6217;48.150;17.142;2022-11-24T09:09:08;4.78;;;3.95;;
12308;SDS011;6217;48.150;17.142;2022-11-24T09:13:14;7.05;;;3.80;;
12308;SDS011;6217;48.150;17.142;2022-11-24T09:17:20;6.75;;;4.65;;
12308;SDS011;6217;48.150;17.142;2022-11-24T09:21:26;6.57;;;4.32;;
12308;SDS011;6217;48.150;17.142;2022-11-24T09:25:32;14.00;;;5.68;;
12308;SDS011;6217;48.150;17.142;2022-11-24T09:29:38;6.72;;;4.13;;
12308;SDS011;6217;48.150;17.142;2022-11-24T09:33:44;5.90;;;4.00;;
12308;SDS011;6217;48.150;17.142;2022-11-24T09:37:50;5.53;;;4.22;;
12308;SDS011;6217;48.150;17.142;2022-11-24T09:42:01;5.80;;;3.08;;
12308;SDS011;6217;48.150;17.142;2022-11-24T09:46:11;4.72;;;3.63;;
12308;SDS011;6217;48.150;17.142;2022-11-24T09:50:34;6.47;;;3.80;;
12308;SDS011;6217;48.150;17.142;2022-11-24T09:54:48;6.80;;;3.20;;
12308;SDS011;6217;48.150;17.142;2022-11-24T09:59:01;4.35;;;2.88;;
12308;SDS011;6217;48.150;17.142;2022-11-24T10:03:15;6.28;;;2.85;;
12308;SDS011;6217;48.150;17.142;2022-11-24T10:07:29;4.85;;;2.70;;
12308;SDS011;6217;48.150;17.142;2022-11-24T10:16:33;4.07;;;2.42;;
12308;SDS011;6217;48.150;17.142;2022-11-24T10:25:20;5.10;;;1.88;;
12308;SDS011;6217;48.150;17.142;2022-11-24T10:29:37;6.40;;;2.75;;
12308;SDS011;6217;48.150;17.142;2022-11-24T10:33:45;5.22;;;3.80;;
12308;SDS011;6217;48.150;17.142;2022-11-24T10:38:01;6.13;;;2.83;;
12308;SDS011;6217;48.150;17.142;2022-11-24T10:46:32;3.33;;;2.03;;
12308;SDS011;6217;48.150;17.142;2022-11-24T10:50:39;4.93;;;1.73;;
12308;SDS011;6217;48.150;17.142;2022-11-24T10:55:20;3.20;;;2.03;;
12308;SDS011;6217;48.150;17.142;2022-11-24T10:59:31;3.95;;;2.08;;
12308;SDS011;6217;48.150;17.142;2022-11-24T11:03:55;2.67;;;2.10;;
12308;SDS011;6217;48.150;17.142;2022-11-24T11:12:22;6.32;;;2.60;;
12308;SDS011;6217;48.150;17.142;2022-11-24T11:20:39;3.92;;;2.25;;
12308;SDS011;6217;48.150;17.142;2022-11-24T11:25:13;3.10;;;2.20;;
12308;SDS011;6217;48.150;17.142;2022-11-24T11:29:25;4.68;;;2.05;;
12308;SDS011;6217;48.150;17.142;2022-11-24T11:33:32;6.82;;;2.72;;
12308;SDS011;6217;48.150;17.142;2022-11-24T11:37:41;6.03;;;2.50;;
12308;SDS011;6217;48.150;17.142;2022-11-24T11:41:51;2.95;;;2.35;;
12308;SDS011;6217;48.150;17.142;2022-11-24T11:46:12;3.38;;;2.28;;
12308;SDS011;6217;48.150;17.142;2022-11-24T11:50:34;3.05;;;2.25;;
12308;SDS011;6217;48.150;17.142;2022-11-24T11:55:02;5.13;;;3.50;;
12308;SDS011;6217;48.150;17.142;2022-11-24T12:04:03;6.07;;;2.70;;
12308;SDS011;6217;48.150;17.142;2022-11-24T12:08:18;3.05;;;2.03;;
12308;SDS011;6217;48.150;17.142;2022-11-24T12:17:04;3.55;;;2.72;;
12308;SDS011;6217;48.150;17.142;2022-11-24T12:21:36;4.03;;;2.58;;
12308;SDS011;6217;48.150;17.142;2022-11-24T12:30:40;3.60;;;2.55;;
12308;SDS011;6217;48.150;17.142;2022-11-24T12:34:58;3.13;;;2.40;;
12308;SDS011;6217;48.150;17.142;2022-11-24T12:39:34;4.47;;;2.63;;
12308;SDS011;6217;48.150;17.142;2022-11-24T12:43:58;6.35;;;2.65;;
12308;SDS011;6217;48.150;17.142;2022-11-24T12:52:49;4.93;;;2.60;;
12308;SDS011;6217;48.150;17.142;2022-11-24T12:57:01;5.55;;;2.50;;
12308;SDS011;6217;48.150;17.142;2022-11-24T13:18:41;4.82;;;3.15;;
12308;SDS011;6217;48.150;17.142;2022-11-24T13:22:59;4.53;;;2.40;;
12308;SDS011;6217;48.150;17.142;2022-11-24T13:31:21;6.95;;;3.30;;
12308;SDS011;6217;48.150;17.142;2022-11-24T13:35:27;4.38;;;2.92;;
12308;SDS011;6217;48.150;17.142;2022-11-24T13:56:44;5.05;;;2.78;;
12308;SDS011;6217;48.150;17.142;2022-11-24T14:05:13;5.65;;;3.40;;
12308;SDS011;6217;48.150;17.142;2022-11-24T14:09:22;3.38;;;2.88;;
12308;SDS011;6217;48.150;17.142;2022-11-24T14:13:35;7.10;;;3.50;;
12308;SDS011;6217;48.150;17.142;2022-11-24T14:17:41;6.68;;;4.13;;
12308;SDS011;6217;48.150;17.142;2022-11-24T14:21:46;7.07;;;4.30;;
12308;SDS011;6217;48.150;17.142;2022-11-24T14:25:52;6.28;;;3.53;;
12308;SDS011;6217;48.150;17.142;2022-11-24T14:34:14;4.10;;;3.70;;
12308;SDS011;6217;48.150;17.142;2022-11-24T14:38:21;8.10;;;4.03;;
12308;SDS011;6217;48.150;17.142;2022-11-24T14:42:27;8.30;;;4.10;;
12308;SDS011;6217;48.150;17.142;2022-11-24T14:46:33;4.93;;;3.67;;
12308;SDS011;6217;48.150;17.142;2022-11-24T14:50:40;5.88;;;4.32;;
12308;SDS011;6217;48.150;17.142;2022-11-24T14:58:56;8.38;;;3.72;;
12308;SDS011;6217;48.150;17.142;2022-11-24T15:03:18;6.15;;;3.72;;
12308;SDS011;6217;48.150;17.142;2022-11-24T15:07:25;8.25;;;4.68;;
12308;SDS011;6217;48.150;17.142;2022-11-24T15:11:33;5.47;;;4.22;;
12308;SDS011;6217;48.150;17.142;2022-11-24T15:15:39;5.25;;;3.75;;
12308;SDS011;6217;48.150;17.142;2022-11-24T15:24:05;6.93;;;4.32;;
12308;SDS011;6217;48.150;17.142;2022-11-24T15:28:18;6.47;;;3.67;;
12308;SDS011;6217;48.150;17.142;2022-11-24T15:32:28;5.72;;;3.38;;
12308;SDS011;6217;48.150;17.142;2022-11-24T15:36:34;4.60;;;3.58;;
12308;SDS011;6217;48.150;17.142;2022-11-24T15:40:41;3.88;;;2.95;;
12308;SDS011;6217;48.150;17.142;2022-11-24T15:44:50;4.60;;;3.30;;
12308;SDS011;6217;48.150;17.142;2022-11-24T15:48:56;3.97;;;3.20;;
12308;SDS011;6217;48.150;17.142;2022-11-24T15:53:03;6.20;;;3.60;;
12308;SDS011;6217;48.150;17.142;2022-11-24T15:57:09;5.80;;;4.68;;
12308;SDS011;6217;48.150;17.142;2022-11-24T16:01:15;5.38;;;3.92;;
12308;SDS011;6217;48.150;17.142;2022-11-24T16:05:21;5.53;;;3.53;;
12308;SDS011;6217;48.150;17.142;2022-11-24T16:09:27;5.25;;;3.30;;
12308;SDS011;6217;48.150;17.142;2022-11-24T16:13:32;5.03;;;3.55;;
12308;SDS011;6217;48.150;17.142;2022-11-24T16:17:38;4.75;;;3.15;;
12308;SDS011;6217;48.150;17.142;2022-11-24T16:21:46;4.00;;;3.05;;
12308;SDS011;6217;48.150;17.142;2022-11-24T16:25:52;4.47;;;3.28;;
12308;SDS011;6217;48.150;17.142;2022-11-24T16:29:57;3.40;;;3.10;;
12308;SDS011;6217;48.150;17.142;2022-11-24T16:34:03;4.97;;;3.38;;
12308;SDS011;6217;48.150;17.142;2022-11-24T16:38:15;6.97;;;3.10;;
12308;SDS011;6217;48.150;17.142;2022-11-24T16:42:22;4.82;;;3.35;;
12308;SDS011;6217;48.150;17.142;2022-11-24T16:46:28;4.68;;;3.28;;
12308;SDS011;6217;48.150;17.142;2022-11-24T16:50:34;8.82;;;6.63;;
12308;SDS011;6217;48.150;17.142;2022-11-24T16:54:41;10.70;;;8.52;;
12308;SDS011;6217;48.150;17.142;2022-11-24T16:58:49;12.15;;;9.70;;
12308;SDS011;6217;48.150;17.142;2022-11-24T17:02:55;8.73;;;7.47;;
12308;SDS011;6217;48.150;17.142;2022-11-24T17:07:00;11.10;;;7.50;;
12308;SDS011;6217;48.150;17.142;2022-11-24T17:11:10;7.20;;;4.68;;
12308;SDS011;6217;48.150;17.142;2022-11-24T17:15:18;7.07;;;4.85;;
12308;SDS011;6217;48.150;17.142;2022-11-24T17:19:24;7.22;;;4.60;;
12308;SDS011;6217;48.150;17.142;2022-11-24T17:23:29;5.82;;;4.15;;
12308;SDS011;6217;48.150;17.142;2022-11-24T17:27:35;5.18;;;4.28;;
12308;SDS011;6217;48.150;17.142;2022-11-24T17:31:41;6.78;;;4.80;;
12308;SDS011;6217;48.150;17.142;2022-11-24T17:35:48;4.55;;;4.15;;
12308;SDS011;6217;48.150;17.142;2022-11-24T17:39:53;6.15;;;4.10;;
12308;SDS011;6217;48.150;17.142;2022-11-24T17:43:59;9.05;;;4.70;;
12308;SDS011;6217;48.150;17.142;2022-11-24T17:48:05;4.57;;;3.38;;
12308;SDS011;6217;48.150;17.142;2022-11-24T17:52:11;7.40;;;5.18;;
12308;SDS011;6217;48.150;17.142;2022-11-24T17:56:17;4.72;;;3.97;;
12308;SDS011;6217;48.150;17.142;2022-11-24T18:00:28;6.53;;;4.15;;
12308;SDS011;6217;48.150;17.142;2022-11-24T18:04:33;5.10;;;4.45;;
12308;SDS011;6217;48.150;17.142;2022-11-24T18:08:40;4.57;;;4.05;;
12308;SDS011;6217;48.150;17.142;2022-11-24T18:12:47;6.30;;;4.13;;
12308;SDS011;6217;48.150;17.142;2022-11-24T18:16:53;5.85;;;3.85;;
12308;SDS011;6217;48.150;17.142;2022-11-24T18:20:59;4.95;;;3.60;;
12308;SDS011;6217;48.150;17.142;2022-11-24T18:25:06;4.95;;;3.45;;
12308;SDS011;6217;48.150;17.142;2022-11-24T18:29:12;6.38;;;3.83;;
12308;SDS011;6217;48.150;17.142;2022-11-24T18:33:18;4.57;;;3.85;;
12308;SDS011;6217;48.150;17.142;2022-11-24T18:37:24;4.63;;;4.13;;
12308;SDS011;6217;48.150;17.142;2022-11-24T18:41:29;5.38;;;3.60;;
12308;SDS011;6217;48.150;17.142;2022-11-24T18:45:36;4.22;;;3.83;;
12308;SDS011;6217;48.150;17.142;2022-11-24T18:49:42;6.13;;;3.60;;
12308;SDS011;6217;48.150;17.142;2022-11-24T18:53:49;4.75;;;4.22;;
12308;SDS011;6217;48.150;17.142;2022-11-24T18:57:58;5.13;;;4.63;;
12308;SDS011;6217;48.150;17.142;2022-11-24T19:02:04;6.30;;;4.97;;
12308;SDS011;6217;48.150;17.142;2022-11-24T19:06:12;6.47;;;4.90;;
12308;SDS011;6217;48.150;17.142;2022-11-24T19:10:38;5.50;;;4.65;;
12308;SDS011;6217;48.150;17.142;2022-11-24T19:14:44;5.88;;;5.28;;
12308;SDS011;6217;48.150;17.142;2022-11-24T19:18:50;6.93;;;5.18;;
12308;SDS011;6217;48.150;17.142;2022-11-24T19:22:57;7.10;;;4.57;;
12308;SDS011;6217;48.150;17.142;2022-11-24T19:27:02;5.40;;;4.07;;
12308;SDS011;6217;48.150;17.142;2022-11-24T19:31:10;6.88;;;4.88;;
12308;SDS011;6217;48.150;17.142;2022-11-24T19:35:17;7.95;;;5.68;;
12308;SDS011;6217;48.150;17.142;2022-11-24T19:39:23;4.95;;;4.38;;
12308;SDS011;6217;48.150;17.142;2022-11-24T19:43:29;5.50;;;4.60;;
12308;SDS011;6217;48.150;17.142;2022-11-24T19:47:35;6.95;;;3.78;;
12308;SDS011;6217;48.150;17.142;2022-11-24T19:51:41;6.90;;;4.22;;
12308;SDS011;6217;48.150;17.142;2022-11-24T19:55:47;5.60;;;4.30;;
12308;SDS011;6217;48.150;17.142;2022-11-24T19:59:52;5.20;;;4.35;;
12308;SDS011;6217;48.150;17.142;2022-11-24T20:04:08;7.75;;;4.97;;
12308;SDS011;6217;48.150;17.142;2022-11-24T20:08:16;7.55;;;5.53;;
12308;SDS011;6217;48.150;17.142;2022-11-24T20:12:25;6.60;;;4.90;;
12308;SDS011;6217;48.150;17.142;2022-11-24T20:16:32;6.65;;;5.47;;
12308;SDS011;6217;48.150;17.142;2022-11-24T20:20:38;9.80;;;5.75;;
12308;SDS011;6217;48.150;17.142;2022-11-24T20:24:44;6.10;;;5.53;;
12308;SDS011;6217;48.150;17.142;2022-11-24T20:28:51;5.95;;;5.30;;
12308;SDS011;6217;48.150;17.142;2022-11-24T20:32:58;6.50;;;5.20;;
12308;SDS011;6217;48.150;17.142;2022-11-24T20:37:04;6.00;;;5.05;;
12308;SDS011;6217;48.150;17.142;2022-11-24T20:41:24;8.88;;;5.70;;
12308;SDS011;6217;48.150;17.142;2022-11-24T20:45:34;6.70;;;6.05;;
12308;SDS011;6217;48.150;17.142;2022-11-24T20:49:40;7.05;;;5.85;;
12308;SDS011;6217;48.150;17.142;2022-11-24T20:53:47;7.15;;;5.75;;
12308;SDS011;6217;48.150;17.142;2022-11-24T20:57:53;10.55;;;5.22;;
12308;SDS011;6217;48.150;17.142;2022-11-24T21:01:59;6.78;;;5.85;;
12308;SDS011;6217;48.150;17.142;2022-11-24T21:06:05;6.28;;;5.18;;
12308;SDS011;6217;48.150;17.142;2022-11-24T21:10:12;7.57;;;5.70;;
12308;SDS011;6217;48.150;17.142;2022-11-24T21:14:17;8.82;;;6.70;;
12308;SDS011;6217;48.150;17.142;2022-11-24T21:18:23;9.43;;;6.25;;
12308;SDS011;6217;48.150;17.142;2022-11-24T21:22:29;9.27;;;6.15;;
12308;SDS011;6217;48.150;17.142;2022-11-24T21:26:35;17.23;;;10.43;;
12308;SDS011;6217;48.150;17.142;2022-11-24T21:30:42;8.95;;;6.95;;
12308;SDS011;6217;48.150;17.142;2022-11-24T21:34:47;10.68;;;6.97;;
12308;SDS011;6217;48.150;17.142;2022-11-24T21:38:54;6.47;;;5.10;;
12308;SDS011;6217;48.150;17.142;2022-11-24T21:43:01;7.57;;;6.50;;
12308;SDS011;6217;48.150;17.142;2022-11-24T21:47:07;8.35;;;6.43;;
12308;SDS011;6217;48.150;17.142;2022-11-24T21:51:13;8.50;;;6.72;;
12308;SDS011;6217;48.150;17.142;2022-11-24T21:55:21;9.45;;;6.95;;
12308;SDS011;6217;48.150;17.142;2022-11-24T21:59:26;10.07;;;7.90;;
12308;SDS011;6217;48.150;17.142;2022-11-24T22:03:32;12.02;;;7.38;;
12308;SDS011;6217;48.150;17.142;2022-11-24T22:07:38;10.93;;;7.72;;
12308;SDS011;6217;48.150;17.142;2022-11-24T22:11:44;12.50;;;8.05;;
12308;SDS011;6217;48.150;17.142;2022-11-24T22:16:06;13.85;;;8.60;;
12308;SDS011;6217;48.150;17.142;2022-11-24T22:20:14;12.70;;;7.13;;
12308;SDS011;6217;48.150;17.142;2022-11-24T22:24:19;10.00;;;7.95;;
12308;SDS011;6217;48.150;17.142;2022-11-24T22:28:25;11.45;;;6.97;;
12308;SDS011;6217;48.150;17.142;2022-11-24T22:32:35;13.30;;;7.53;;
12308;SDS011;6217;48.150;17.142;2022-11-24T22:36:40;9.75;;;7.18;;
12308;SDS011;6217;48.150;17.142;2022-11-24T22:40:46;9.48;;;6.75;;
12308;SDS011;6217;48.150;17.142;2022-11-24T22:44:52;6.35;;;5.10;;
12308;SDS011;6217;48.150;17.142;2022-11-24T22:48:58;8.70;;;4.82;;
12308;SDS011;6217;48.150;17.142;2022-11-24T22:53:05;9.55;;;5.65;;
12308;SDS011;6217;48.150;17.142;2022-11-24T22:57:11;5.57;;;3.40;;
12308;SDS011;6217;48.150;17.142;2022-11-24T23:01:20;8.13;;;3.30;;
12308;SDS011;6217;48.150;17.142;2022-11-24T23:05:28;6.00;;;3.33;;
12308;SDS011;6217;48.150;17.142;2022-11-24T23:09:36;3.95;;;2.63;;
12308;SDS011;6217;48.150;17.142;2022-11-24T23:13:42;5.50;;;3.17;;
12308;SDS011;6217;48.150;17.142;2022-11-24T23:17:47;5.07;;;2.00;;
12308;SDS011;6217;48.150;17.142;2022-11-24T23:21:53;4.63;;;2.17;;
12308;SDS011;6217;48.150;17.142;2022-11-24T23:25:59;4.65;;;2.20;;
12308;SDS011;6217;48.150;17.142;2022-11-24T23:30:09;3.65;;;1.83;;
12308;SDS011;6217;48.150;17.142;2022-11-24T23:34:15;5.25;;;1.75;;
12308;SDS011;6217;48.150;17.142;2022-11-24T23:38:24;3.45;;;1.88;;
12308;SDS011;6217;48.150;17.142;2022-11-24T23:42:32;2.42;;;2.08;;
12308;SDS011;6217;48.150;17.142;2022-11-24T23:46:38;3.83;;;2.00;;
12308;SDS011;6217;48.150;17.142;2022-11-24T23:50:44;5.03;;;2.05;;
12308;SDS011;6217;48.150;17.142;2022-11-24T23:54:49;2.53;;;1.98;;
12308;SDS011;6217;48.150;17.142;2022-11-24T23:58:55;5.78;;;2.63;;
